sensor_id;sensor_type;location;lat;lon;timestamp;pressure;altitude;pressure_sealevel;temperature;humidity
69624;BME280;56843;52.020;5.670;2023-04-04T00:00:17;102855.84;;;5.85;48.33
69624;BME280;56843;52.020;5.670;2023-04-04T00:01:48;102857.69;;;5.85;48.38
69624;BME280;56843;52.020;5.670;2023-04-04T00:03:18;102854.25;;;5.84;48.29
69624;BME280;56843;52.020;5.670;2023-04-04T00:04:49;102847.88;;;5.85;48.27
69624;BME280;56843;52.020;5.670;2023-04-04T00:06:20;102854.00;;;5.86;48.39
69624;BME280;56843;52.020;5.670;2023-04-04T00:07:50;102863.53;;;5.87;48.44
69624;BME280;56843;52.020;5.670;2023-04-04T00:09:21;102854.56;;;5.88;48.20
69624;BME280;56843;52.020;5.670;2023-04-04T00:10:58;102860.66;;;5.88;48.35
69624;BME280;56843;52.020;5.670;2023-04-04T00:12:29;102854.81;;;5.86;48.17
69624;BME280;56843;52.020;5.670;2023-04-04T00:14:00;102851.09;;;5.87;48.32
69624;BME280;56843;52.020;5.670;2023-04-04T00:15:31;102851.34;;;5.86;48.27
69624;BME280;56843;52.020;5.670;2023-04-04T00:17:03;102855.84;;;5.85;48.26
69624;BME280;56843;52.020;5.670;2023-04-04T00:18:34;102854.25;;;5.84;48.23
69624;BME280;56843;52.020;5.670;2023-04-04T00:20:05;102847.31;;;5.83;48.33
69624;BME280;56843;52.020;5.670;2023-04-04T00:21:36;102852.88;;;5.82;48.51
69624;BME280;56843;52.020;5.670;2023-04-04T00:23:07;102847.56;;;5.82;48.44
69624;BME280;56843;52.020;5.670;2023-04-04T00:24:40;102851.25;;;5.81;48.27
69624;BME280;56843;52.020;5.670;2023-04-04T00:26:10;102843.53;;;5.79;48.39
69624;BME280;56843;52.020;5.670;2023-04-04T00:27:43;102841.13;;;5.78;48.45
69624;BME280;56843;52.020;5.670;2023-04-04T00:29:13;102838.47;;;5.78;48.46
69624;BME280;56843;52.020;5.670;2023-04-04T00:30:44;102841.38;;;5.76;48.41
69624;BME280;56843;52.020;5.670;2023-04-04T00:32:15;102839.78;;;5.75;48.46
69624;BME280;56843;52.020;5.670;2023-04-04T00:33:45;102837.91;;;5.76;48.48
69624;BME280;56843;52.020;5.670;2023-04-04T00:35:16;102837.34;;;5.74;48.55
69624;BME280;56843;52.020;5.670;2023-04-04T00:36:47;102831.47;;;5.72;48.53
69624;BME280;56843;52.020;5.670;2023-04-04T00:38:18;102833.56;;;5.70;48.65
69624;BME280;56843;52.020;5.670;2023-04-04T00:39:48;102832.75;;;5.69;48.59
69624;BME280;56843;52.020;5.670;2023-04-04T00:41:19;102825.06;;;5.68;48.57
69624;BME280;56843;52.020;5.670;2023-04-04T00:42:50;102824.25;;;5.67;48.73
69624;BME280;56843;52.020;5.670;2023-04-04T00:44:21;102814.72;;;5.66;48.77
69624;BME280;56843;52.020;5.670;2023-04-04T00:45:52;102820.22;;;5.65;48.75
69624;BME280;56843;52.020;5.670;2023-04-04T00:47:23;102821.03;;;5.65;48.63
69624;BME280;56843;52.020;5.670;2023-04-04T00:48:55;102826.59;;;5.64;48.43
69624;BME280;56843;52.020;5.670;2023-04-04T00:50:26;102820.72;;;5.62;48.82
69624;BME280;56843;52.020;5.670;2023-04-04T00:51:56;102818.88;;;5.62;49.00
69624;BME280;56843;52.020;5.670;2023-04-04T00:53:27;102811.16;;;5.61;48.96
69624;BME280;56843;52.020;5.670;2023-04-04T00:54:58;102811.41;;;5.59;48.72
69624;BME280;56843;52.020;5.670;2023-04-04T00:56:30;102821.44;;;5.57;48.94
69624;BME280;56843;52.020;5.670;2023-04-04T00:58:02;102815.78;;;5.54;49.02
69624;BME280;56843;52.020;5.670;2023-04-04T00:59:32;102816.84;;;5.53;48.96
69624;BME280;56843;52.020;5.670;2023-04-04T01:03:36;102820.94;;;5.44;49.22
69624;BME280;56843;52.020;5.670;2023-04-04T01:05:07;102818.84;;;5.46;48.99
69624;BME280;56843;52.020;5.670;2023-04-04T01:06:37;102823.34;;;5.45;49.24
69624;BME280;56843;52.020;5.670;2023-04-04T01:08:08;102811.38;;;5.43;49.24
69624;BME280;56843;52.020;5.670;2023-04-04T01:09:38;102817.97;;;5.40;49.23
69624;BME280;56843;52.020;5.670;2023-04-04T01:11:10;102814.25;;;5.41;49.13
69624;BME280;56843;52.020;5.670;2023-04-04T01:12:40;102821.41;;;5.41;49.30
69624;BME280;56843;52.020;5.670;2023-04-04T01:14:12;102811.31;;;5.38;49.32
69624;BME280;56843;52.020;5.670;2023-04-04T01:15:43;102813.94;;;5.38;49.43
69624;BME280;56843;52.020;5.670;2023-04-04T01:17:14;102817.63;;;5.37;49.42
69624;BME280;56843;52.020;5.670;2023-04-04T01:18:45;102821.09;;;5.37;49.41
69624;BME280;56843;52.020;5.670;2023-04-04T01:20:22;102814.97;;;5.37;49.34
69624;BME280;56843;52.020;5.670;2023-04-04T01:21:56;102810.97;;;5.34;49.33
69624;BME280;56843;52.020;5.670;2023-04-04T01:23:45;102813.59;;;5.34;49.37
69624;BME280;56843;52.020;5.670;2023-04-04T01:25:18;102804.28;;;5.32;49.43
69624;BME280;56843;52.020;5.670;2023-04-04T01:26:57;102810.06;;;5.29;49.62
69624;BME280;56843;52.020;5.670;2023-04-04T01:28:30;102811.66;;;5.30;49.61
69624;BME280;56843;52.020;5.670;2023-04-04T01:30:02;102816.75;;;5.31;49.56
69624;BME280;56843;52.020;5.670;2023-04-04T01:31:46;102801.88;;;5.30;49.69
69624;BME280;56843;52.020;5.670;2023-04-04T01:33:24;102805.00;;;5.27;49.43
69624;BME280;56843;52.020;5.670;2023-04-04T01:37:16;102813.69;;;5.23;49.73
69624;BME280;56843;52.020;5.670;2023-04-04T01:39:00;102813.91;;;5.21;49.59
69624;BME280;56843;52.020;5.670;2023-04-04T01:40:34;102812.53;;;5.18;49.64
69624;BME280;56843;52.020;5.670;2023-04-04T01:42:08;102815.16;;;5.18;49.86
69624;BME280;56843;52.020;5.670;2023-04-04T01:43:39;102822.34;;;5.18;49.60
69624;BME280;56843;52.020;5.670;2023-04-04T01:45:10;102816.22;;;5.17;49.78
69624;BME280;56843;52.020;5.670;2023-04-04T01:46:43;102811.16;;;5.16;49.85
69624;BME280;56843;52.020;5.670;2023-04-04T01:48:14;102809.56;;;5.15;49.65
69624;BME280;56843;52.020;5.670;2023-04-04T01:49:48;102822.81;;;5.15;49.66
69624;BME280;56843;52.020;5.670;2023-04-04T01:51:20;102812.47;;;5.13;49.83
69624;BME280;56843;52.020;5.670;2023-04-04T01:52:51;102817.97;;;5.12;49.84
69624;BME280;56843;52.020;5.670;2023-04-04T01:54:22;102821.66;;;5.11;49.96
69624;BME280;56843;52.020;5.670;2023-04-04T01:55:53;102817.19;;;5.11;49.79
69624;BME280;56843;52.020;5.670;2023-04-04T01:57:24;102811.06;;;5.11;49.81
69624;BME280;56843;52.020;5.670;2023-04-04T01:58:55;102814.75;;;5.10;49.95
69624;BME280;56843;52.020;5.670;2023-04-04T02:00:26;102805.22;;;5.09;49.88
69624;BME280;56843;52.020;5.670;2023-04-04T02:01:56;102812.34;;;5.08;50.17
69624;BME280;56843;52.020;5.670;2023-04-04T02:03:26;102815.25;;;5.07;50.18
69624;BME280;56843;52.020;5.670;2023-04-04T02:04:57;102818.91;;;5.06;50.02
69624;BME280;56843;52.020;5.670;2023-04-04T02:06:27;102827.09;;;5.04;50.26
69624;BME280;56843;52.020;5.670;2023-04-04T02:07:58;102823.66;;;5.04;50.22
69624;BME280;56843;52.020;5.670;2023-04-04T02:09:37;102829.41;;;5.01;50.19
69624;BME280;56843;52.020;5.670;2023-04-04T02:11:07;102824.09;;;5.01;50.30
69624;BME280;56843;52.020;5.670;2023-04-04T02:12:38;102829.41;;;5.01;50.35
69624;BME280;56843;52.020;5.670;2023-04-04T02:14:09;102826.19;;;4.99;50.43
69624;BME280;56843;52.020;5.670;2023-04-04T02:15:40;102821.94;;;4.98;50.36
69624;BME280;56843;52.020;5.670;2023-04-04T02:17:10;102829.09;;;4.97;50.30
69624;BME280;56843;52.020;5.670;2023-04-04T02:18:41;102824.81;;;4.96;50.53
69624;BME280;56843;52.020;5.670;2023-04-04T02:20:11;102831.16;;;4.95;50.22
69624;BME280;56843;52.020;5.670;2023-04-04T02:21:42;102825.88;;;4.95;50.46
69624;BME280;56843;52.020;5.670;2023-04-04T02:23:12;102821.03;;;4.92;50.60
69624;BME280;56843;52.020;5.670;2023-04-04T02:24:43;102814.16;;;4.91;50.45
69624;BME280;56843;52.020;5.670;2023-04-04T02:26:13;102821.28;;;4.91;50.54
69624;BME280;56843;52.020;5.670;2023-04-04T02:27:44;102819.91;;;4.88;50.54
69624;BME280;56843;52.020;5.670;2023-04-04T02:29:14;102826.00;;;4.89;50.75
69624;BME280;56843;52.020;5.670;2023-04-04T02:30:47;102819.91;;;4.88;50.27
69624;BME280;56843;52.020;5.670;2023-04-04T02:32:17;102824.38;;;4.88;50.58
69624;BME280;56843;52.020;5.670;2023-04-04T02:33:48;102824.63;;;4.86;50.53
69624;BME280;56843;52.020;5.670;2023-04-04T02:35:21;102827.53;;;4.85;50.61
69624;BME280;56843;52.020;5.670;2023-04-04T02:36:53;102821.41;;;4.84;50.68
69624;BME280;56843;52.020;5.670;2023-04-04T02:38:25;102825.09;;;4.83;50.73
69624;BME280;56843;52.020;5.670;2023-04-04T02:39:55;102827.72;;;4.83;50.68
69624;BME280;56843;52.020;5.670;2023-04-04T02:41:26;102832.00;;;4.84;50.75
69624;BME280;56843;52.020;5.670;2023-04-04T02:42:57;102824.28;;;4.83;51.03
69624;BME280;56843;52.020;5.670;2023-04-04T02:44:27;102826.16;;;4.82;50.75
69624;BME280;56843;52.020;5.670;2023-04-04T02:45:58;102820.84;;;4.82;50.88
69624;BME280;56843;52.020;5.670;2023-04-04T02:47:31;102823.50;;;4.82;50.93
69624;BME280;56843;52.020;5.670;2023-04-04T02:49:01;102820.84;;;4.82;50.74
69624;BME280;56843;52.020;5.670;2023-04-04T02:50:34;102818.19;;;4.82;50.76
69624;BME280;56843;52.020;5.670;2023-04-04T02:52:05;102814.75;;;4.82;50.90
69624;BME280;56843;52.020;5.670;2023-04-04T02:53:40;102807.81;;;4.81;51.06
69624;BME280;56843;52.020;5.670;2023-04-04T02:55:22;102803.84;;;4.78;51.06
69624;BME280;56843;52.020;5.670;2023-04-04T02:56:53;102803.84;;;4.78;51.17
69624;BME280;56843;52.020;5.670;2023-04-04T02:58:23;102797.94;;;4.76;51.09
69624;BME280;56843;52.020;5.670;2023-04-04T02:59:54;102804.63;;;4.79;51.23
69624;BME280;56843;52.020;5.670;2023-04-04T03:01:24;102796.91;;;4.77;51.36
69624;BME280;56843;52.020;5.670;2023-04-04T03:02:57;102802.47;;;4.76;51.37
69624;BME280;56843;52.020;5.670;2023-04-04T03:04:33;102798.66;;;4.72;51.35
69624;BME280;56843;52.020;5.670;2023-04-04T03:06:05;102796.00;;;4.72;51.29
69624;BME280;56843;52.020;5.670;2023-04-04T03:07:36;102791.50;;;4.72;51.51
69624;BME280;56843;52.020;5.670;2023-04-04T03:09:07;102792.56;;;4.71;51.29
69624;BME280;56843;52.020;5.670;2023-04-04T03:10:38;102785.91;;;4.69;51.63
69624;BME280;56843;52.020;5.670;2023-04-04T03:12:10;102784.06;;;4.69;51.55
69624;BME280;56843;52.020;5.670;2023-04-04T03:13:41;102794.09;;;4.67;51.63
69624;BME280;56843;52.020;5.670;2023-04-04T03:15:11;102791.44;;;4.67;51.68
69624;BME280;56843;52.020;5.670;2023-04-04T03:16:42;102783.94;;;4.64;51.55
69624;BME280;56843;52.020;5.670;2023-04-04T03:18:12;102790.84;;;4.65;51.62
69624;BME280;56843;52.020;5.670;2023-04-04T03:19:43;102785.78;;;4.64;51.65
69624;BME280;56843;52.020;5.670;2023-04-04T03:21:14;102781.56;;;4.63;51.68
69624;BME280;56843;52.020;5.670;2023-04-04T03:22:45;102789.38;;;4.58;51.86
69624;BME280;56843;52.020;5.670;2023-04-04T03:24:16;102791.78;;;4.59;51.87
69624;BME280;56843;52.020;5.670;2023-04-04T03:25:46;102792.59;;;4.60;51.77
69624;BME280;56843;52.020;5.670;2023-04-04T03:27:16;102797.88;;;4.60;51.73
69624;BME280;56843;52.020;5.670;2023-04-04T03:28:47;102787.53;;;4.58;51.85
69624;BME280;56843;52.020;5.670;2023-04-04T03:30:18;102789.38;;;4.58;51.59
69624;BME280;56843;52.020;5.670;2023-04-04T03:31:48;102788.31;;;4.59;51.78
69624;BME280;56843;52.020;5.670;2023-04-04T03:33:19;102793.63;;;4.59;51.86
69624;BME280;56843;52.020;5.670;2023-04-04T03:34:51;102790.19;;;4.58;51.80
69624;BME280;56843;52.020;5.670;2023-04-04T03:36:21;102798.34;;;4.57;51.87
69624;BME280;56843;52.020;5.670;2023-04-04T03:37:54;102797.56;;;4.56;51.99
69624;BME280;56843;52.020;5.670;2023-04-04T03:39:28;102789.84;;;4.55;51.80
69624;BME280;56843;52.020;5.670;2023-04-04T03:41:01;102790.06;;;4.53;51.82
69624;BME280;56843;52.020;5.670;2023-04-04T03:42:35;102791.09;;;4.52;51.79
69624;BME280;56843;52.020;5.670;2023-04-04T03:44:10;102787.88;;;4.50;52.14
69624;BME280;56843;52.020;5.670;2023-04-04T03:45:42;102778.13;;;4.51;52.16
69624;BME280;56843;52.020;5.670;2023-04-04T03:47:13;102781.00;;;4.49;52.16
69624;BME280;56843;52.020;5.670;2023-04-04T03:48:43;102776.16;;;4.46;52.25
69624;BME280;56843;52.020;5.670;2023-04-04T03:50:14;102777.78;;;4.47;52.40
69624;BME280;56843;52.020;5.670;2023-04-04T03:51:51;102773.19;;;4.42;52.32
69624;BME280;56843;52.020;5.670;2023-04-04T03:53:23;102784.56;;;4.43;52.34
69624;BME280;56843;52.020;5.670;2023-04-04T03:54:53;102784.00;;;4.41;52.34
69624;BME280;56843;52.020;5.670;2023-04-04T03:56:24;102784.00;;;4.41;52.28
69624;BME280;56843;52.020;5.670;2023-04-04T03:57:54;102779.75;;;4.40;52.38
69624;BME280;56843;52.020;5.670;2023-04-04T03:59:27;102777.91;;;4.40;52.38
69624;BME280;56843;52.020;5.670;2023-04-04T04:00:58;102777.34;;;4.38;52.34
69624;BME280;56843;52.020;5.670;2023-04-04T04:02:32;102776.53;;;4.38;52.37
69624;BME280;56843;52.020;5.670;2023-04-04T04:04:02;102772.06;;;4.38;52.39
69624;BME280;56843;52.020;5.670;2023-04-04T04:05:33;102768.34;;;4.39;52.28
69624;BME280;56843;52.020;5.670;2023-04-04T04:07:03;102773.97;;;4.43;52.53
69624;BME280;56843;52.020;5.670;2023-04-04T04:08:34;102771.81;;;4.52;52.92
69624;BME280;56843;52.020;5.670;2023-04-04T04:10:05;102774.97;;;4.65;53.10
69624;BME280;56843;52.020;5.670;2023-04-04T04:11:36;102776.88;;;4.81;53.26
69624;BME280;56843;52.020;5.670;2023-04-04T04:13:06;102776.38;;;4.96;52.94
69624;BME280;56843;52.020;5.670;2023-04-04T04:14:37;102775.59;;;5.12;53.23
69624;BME280;56843;52.020;5.670;2023-04-04T04:16:10;102791.53;;;5.29;53.06
69624;BME280;56843;52.020;5.670;2023-04-04T04:17:41;102788.34;;;5.43;53.22
69624;BME280;56843;52.020;5.670;2023-04-04T04:19:13;102790.44;;;5.58;53.16
69624;BME280;56843;52.020;5.670;2023-04-04T04:20:45;102791.72;;;5.72;52.97
69624;BME280;56843;52.020;5.670;2023-04-04T04:22:15;102791.38;;;5.85;52.80
69624;BME280;56843;52.020;5.670;2023-04-04T04:23:47;102799.81;;;5.99;53.13
69624;BME280;56843;52.020;5.670;2023-04-04T04:25:17;102790.97;;;6.10;53.18
69624;BME280;56843;52.020;5.670;2023-04-04T04:26:58;102790.56;;;6.18;53.20
69624;BME280;56843;52.020;5.670;2023-04-04T04:28:29;102795.25;;;6.32;53.00
69624;BME280;56843;52.020;5.670;2023-04-04T04:29:59;102785.84;;;6.41;53.13
69624;BME280;56843;52.020;5.670;2023-04-04T04:31:31;102795.75;;;6.51;52.85
69624;BME280;56843;52.020;5.670;2023-04-04T04:33:02;102785.53;;;6.59;53.13
69624;BME280;56843;52.020;5.670;2023-04-04T04:34:39;102794.69;;;6.68;53.24
69624;BME280;56843;52.020;5.670;2023-04-04T04:36:10;102789.97;;;6.76;53.10
69624;BME280;56843;52.020;5.670;2023-04-04T04:38:08;102794.88;;;6.84;53.23
69624;BME280;56843;52.020;5.670;2023-04-04T04:39:39;102797.88;;;6.92;53.20
69624;BME280;56843;52.020;5.670;2023-04-04T04:41:30;102798.72;;;6.98;53.18
69624;BME280;56843;52.020;5.670;2023-04-04T04:43:03;102791.38;;;7.05;53.26
69624;BME280;56843;52.020;5.670;2023-04-04T04:44:34;102791.97;;;7.12;53.21
69624;BME280;56843;52.020;5.670;2023-04-04T04:46:05;102786.47;;;7.18;53.32
69624;BME280;56843;52.020;5.670;2023-04-04T04:47:37;102790.78;;;7.24;53.32
69624;BME280;56843;52.020;5.670;2023-04-04T04:49:10;102788.44;;;7.28;53.44
69624;BME280;56843;52.020;5.670;2023-04-04T04:50:45;102789.81;;;7.35;53.41
69624;BME280;56843;52.020;5.670;2023-04-04T04:52:18;102787.47;;;7.39;53.46
69624;BME280;56843;52.020;5.670;2023-04-04T04:53:49;102783.25;;;7.43;53.58
69624;BME280;56843;52.020;5.670;2023-04-04T04:55:19;102783.03;;;7.50;53.75
69624;BME280;56843;52.020;5.670;2023-04-04T04:57:01;102784.94;;;7.54;53.66
69624;BME280;56843;52.020;5.670;2023-04-04T04:58:32;102787.66;;;7.59;53.67
69624;BME280;56843;52.020;5.670;2023-04-04T05:00:05;102789.78;;;7.62;53.72
69624;BME280;56843;52.020;5.670;2023-04-04T05:01:36;102781.03;;;7.67;53.75
69624;BME280;56843;52.020;5.670;2023-04-04T05:03:06;102787.44;;;7.71;53.65
69624;BME280;56843;52.020;5.670;2023-04-04T05:04:44;102780.81;;;7.73;53.97
69624;BME280;56843;52.020;5.670;2023-04-04T05:06:16;102784.56;;;7.77;53.75
69624;BME280;56843;52.020;5.670;2023-04-04T05:07:47;102789.13;;;7.82;53.44
69624;BME280;56843;52.020;5.670;2023-04-04T05:09:18;102785.97;;;7.85;53.81
69624;BME280;56843;52.020;5.670;2023-04-04T05:10:48;102799.53;;;7.88;53.72
69624;BME280;56843;52.020;5.670;2023-04-04T05:12:21;102793.72;;;7.91;53.66
69624;BME280;56843;52.020;5.670;2023-04-04T05:13:54;102801.97;;;7.95;53.70
69624;BME280;56843;52.020;5.670;2023-04-04T05:15:26;102801.97;;;7.95;53.64
69624;BME280;56843;52.020;5.670;2023-04-04T05:16:59;102808.41;;;7.99;53.55
69624;BME280;56843;52.020;5.670;2023-04-04T05:18:33;102808.16;;;8.00;53.63
69624;BME280;56843;52.020;5.670;2023-04-04T05:20:04;102806.03;;;8.02;53.61
69624;BME280;56843;52.020;5.670;2023-04-04T05:21:35;102807.38;;;8.05;53.49
69624;BME280;56843;52.020;5.670;2023-04-04T05:23:09;102810.59;;;8.07;53.68
69624;BME280;56843;52.020;5.670;2023-04-04T05:24:43;102801.84;;;8.11;53.51
69624;BME280;56843;52.020;5.670;2023-04-04T05:26:17;102812.25;;;8.18;53.49
69624;BME280;56843;52.020;5.670;2023-04-04T05:27:51;102809.09;;;8.26;53.27
69624;BME280;56843;52.020;5.670;2023-04-04T05:29:24;102814.19;;;8.33;53.26
69624;BME280;56843;52.020;5.670;2023-04-04T05:30:55;102804.94;;;8.40;53.28
69624;BME280;56843;52.020;5.670;2023-04-04T05:32:29;102810.00;;;8.47;53.02
69624;BME280;56843;52.020;5.670;2023-04-04T05:34:08;102811.41;;;8.54;52.87
69624;BME280;56843;52.020;5.670;2023-04-04T05:35:40;102807.97;;;8.59;52.75
69624;BME280;56843;52.020;5.670;2023-04-04T05:37:11;102814.66;;;8.66;52.70
69624;BME280;56843;52.020;5.670;2023-04-04T05:38:42;102811.22;;;8.71;52.63
69624;BME280;56843;52.020;5.670;2023-04-04T05:40:13;102801.63;;;8.75;52.66
69624;BME280;56843;52.020;5.670;2023-04-04T05:41:45;102795.78;;;8.78;52.67
69624;BME280;56843;52.020;5.670;2023-04-04T05:43:21;102804.06;;;8.81;52.58
69624;BME280;56843;52.020;5.670;2023-04-04T05:45:04;102802.72;;;8.84;52.54
69624;BME280;56843;52.020;5.670;2023-04-04T05:46:34;102802.22;;;8.87;52.50
69624;BME280;56843;52.020;5.670;2023-04-04T05:48:05;102802.75;;;8.89;52.44
69624;BME280;56843;52.020;5.670;2023-04-04T05:49:40;102802.22;;;8.92;52.37
69624;BME280;56843;52.020;5.670;2023-04-04T05:51:10;102807.03;;;8.95;52.73
69624;BME280;56843;52.020;5.670;2023-04-04T05:52:47;102802.50;;;8.96;52.18
69624;BME280;56843;52.020;5.670;2023-04-04T05:54:18;102796.91;;;8.97;52.28
69624;BME280;56843;52.020;5.670;2023-04-04T05:55:52;102802.78;;;8.99;52.33
69624;BME280;56843;52.020;5.670;2023-04-04T05:57:24;102809.72;;;9.00;52.28
69624;BME280;56843;52.020;5.670;2023-04-04T05:58:58;102803.06;;;9.03;52.14
69624;BME280;56843;52.020;5.670;2023-04-04T06:00:31;102801.97;;;9.04;52.14
69624;BME280;56843;52.020;5.670;2023-04-04T06:02:08;102813.72;;;9.08;52.03
69624;BME280;56843;52.020;5.670;2023-04-04T06:03:43;102811.06;;;9.08;51.97
69624;BME280;56843;52.020;5.670;2023-04-04T06:05:16;102823.06;;;9.10;51.89
69624;BME280;56843;52.020;5.670;2023-04-04T06:06:47;102819.34;;;9.11;52.00
69624;BME280;56843;52.020;5.670;2023-04-04T06:08:17;102816.41;;;9.13;51.96
69624;BME280;56843;52.020;5.670;2023-04-04T06:09:48;102821.22;;;9.16;51.98
69624;BME280;56843;52.020;5.670;2023-04-04T06:11:19;102819.91;;;9.18;51.75
69624;BME280;56843;52.020;5.670;2023-04-04T06:12:54;102822.00;;;9.21;51.99
69624;BME280;56843;52.020;5.670;2023-04-04T06:14:24;102821.78;;;9.23;51.82
69624;BME280;56843;52.020;5.670;2023-04-04T06:15:55;102820.69;;;9.24;51.77
69624;BME280;56843;52.020;5.670;2023-04-04T06:17:25;102823.88;;;9.26;51.68
69624;BME280;56843;52.020;5.670;2023-04-04T06:18:56;102824.69;;;9.26;51.38
69624;BME280;56843;52.020;5.670;2023-04-04T06:20:27;102822.03;;;9.26;51.52
69624;BME280;56843;52.020;5.670;2023-04-04T06:21:57;102814.56;;;9.28;51.51
69624;BME280;56843;52.020;5.670;2023-04-04T06:23:28;102809.22;;;9.28;51.29
69624;BME280;56843;52.020;5.670;2023-04-04T06:24:59;102803.63;;;9.30;51.48
69624;BME280;56843;52.020;5.670;2023-04-04T06:26:30;102811.38;;;9.31;51.32
69624;BME280;56843;52.020;5.670;2023-04-04T06:28:04;102802.31;;;9.32;51.26
69624;BME280;56843;52.020;5.670;2023-04-04T06:29:35;102804.72;;;9.34;51.32
69624;BME280;56843;52.020;5.670;2023-04-04T06:31:07;102804.44;;;9.35;51.18
69624;BME280;56843;52.020;5.670;2023-04-04T06:32:38;102810.31;;;9.37;51.22
69624;BME280;56843;52.020;5.670;2023-04-04T06:34:10;102803.94;;;9.38;51.04
69624;BME280;56843;52.020;5.670;2023-04-04T06:35:53;102813.50;;;9.39;51.16
69624;BME280;56843;52.020;5.670;2023-04-04T06:37:25;102815.91;;;9.41;51.21
69624;BME280;56843;52.020;5.670;2023-04-04T06:39:05;102821.00;;;9.42;51.08
69624;BME280;56843;52.020;5.670;2023-04-04T06:40:36;102821.25;;;9.46;50.93
69624;BME280;56843;52.020;5.670;2023-04-04T06:42:07;102822.88;;;9.47;50.85
69624;BME280;56843;52.020;5.670;2023-04-04T06:43:39;102819.13;;;9.48;50.86
69624;BME280;56843;52.020;5.670;2023-04-04T06:45:10;102821.53;;;9.49;50.84
69624;BME280;56843;52.020;5.670;2023-04-04T06:46:41;102807.13;;;9.50;50.67
69624;BME280;56843;52.020;5.670;2023-04-04T06:48:11;102813.00;;;9.52;50.68
69624;BME280;56843;52.020;5.670;2023-04-04T06:49:42;102817.00;;;9.55;50.71
69624;BME280;56843;52.020;5.670;2023-04-04T06:51:12;102817.81;;;9.55;50.75
69624;BME280;56843;52.020;5.670;2023-04-04T06:52:48;102819.66;;;9.60;50.53
69624;BME280;56843;52.020;5.670;2023-04-04T06:54:18;102816.72;;;9.61;50.78
69624;BME280;56843;52.020;5.670;2023-04-04T06:55:49;102814.34;;;9.65;50.41
69624;BME280;56843;52.020;5.670;2023-04-04T06:57:21;102818.06;;;9.69;50.48
69624;BME280;56843;52.020;5.670;2023-04-04T06:58:51;102827.41;;;9.72;50.30
69624;BME280;56843;52.020;5.670;2023-04-04T07:00:22;102823.13;;;9.76;50.25
69624;BME280;56843;52.020;5.670;2023-04-04T07:01:52;102826.06;;;9.79;50.08
69624;BME280;56843;52.020;5.670;2023-04-04T07:03:23;102825.53;;;9.82;49.88
69624;BME280;56843;52.020;5.670;2023-04-04T07:04:53;102824.72;;;9.87;49.94
69624;BME280;56843;52.020;5.670;2023-04-04T07:06:24;102833.53;;;9.92;49.81
69624;BME280;56843;52.020;5.670;2023-04-04T07:07:55;102829.00;;;9.98;49.98
69624;BME280;56843;52.020;5.670;2023-04-04T07:09:26;102836.19;;;10.02;50.02
69624;BME280;56843;52.020;5.670;2023-04-04T07:10:57;102834.31;;;10.08;49.77
69624;BME280;56843;52.020;5.670;2023-04-04T07:12:29;102836.97;;;10.13;49.68
69624;BME280;56843;52.020;5.670;2023-04-04T07:14:00;102834.34;;;10.18;49.39
69624;BME280;56843;52.020;5.670;2023-04-04T07:15:31;102827.38;;;10.22;49.43
69624;BME280;56843;52.020;5.670;2023-04-04T07:17:01;102831.09;;;10.26;49.29
69624;BME280;56843;52.020;5.670;2023-04-04T07:18:32;102828.69;;;10.29;49.03
69624;BME280;56843;52.020;5.670;2023-04-04T07:20:02;102826.81;;;10.35;48.88
69624;BME280;56843;52.020;5.670;2023-04-04T07:21:33;102831.06;;;10.41;49.02
69624;BME280;56843;52.020;5.670;2023-04-04T07:23:03;102821.72;;;10.44;48.63
69624;BME280;56843;52.020;5.670;2023-04-04T07:24:34;102830.53;;;10.49;48.67
69624;BME280;56843;52.020;5.670;2023-04-04T07:26:05;102831.81;;;10.52;48.39
69624;BME280;56843;52.020;5.670;2023-04-04T07:27:35;102829.44;;;10.55;48.50
69624;BME280;56843;52.020;5.670;2023-04-04T07:29:06;102831.53;;;10.58;48.40
69624;BME280;56843;52.020;5.670;2023-04-04T07:30:37;102829.94;;;10.62;48.28
69624;BME280;56843;52.020;5.670;2023-04-04T07:32:07;102828.56;;;10.65;48.08
69624;BME280;56843;52.020;5.670;2023-04-04T07:33:38;102831.50;;;10.68;48.02
69624;BME280;56843;52.020;5.670;2023-04-04T07:35:09;102826.41;;;10.72;47.92
69624;BME280;56843;52.020;5.670;2023-04-04T07:36:39;102835.22;;;10.77;48.06
69624;BME280;56843;52.020;5.670;2023-04-04T07:38:10;102833.59;;;10.81;47.95
69624;BME280;56843;52.020;5.670;2023-04-04T07:39:40;102828.75;;;10.83;47.98
69624;BME280;56843;52.020;5.670;2023-04-04T07:41:11;102835.97;;;10.88;47.72
69624;BME280;56843;52.020;5.670;2023-04-04T07:42:45;102830.84;;;10.91;47.65
69624;BME280;56843;52.020;5.670;2023-04-04T07:44:16;102831.38;;;10.93;47.44
69624;BME280;56843;52.020;5.670;2023-04-04T07:45:46;102825.47;;;10.96;47.64
69624;BME280;56843;52.020;5.670;2023-04-04T07:47:17;102822.78;;;11.01;47.46
69624;BME280;56843;52.020;5.670;2023-04-04T07:48:47;102831.06;;;11.05;47.13
69624;BME280;56843;52.020;5.670;2023-04-04T07:50:18;102823.28;;;11.08;46.89
69624;BME280;56843;52.020;5.670;2023-04-04T07:51:48;102823.81;;;11.11;47.03
69624;BME280;56843;52.020;5.670;2023-04-04T07:53:19;102824.06;;;11.14;46.79
69624;BME280;56843;52.020;5.670;2023-04-04T07:54:50;102821.91;;;11.16;47.11
69624;BME280;56843;52.020;5.670;2023-04-04T07:56:22;102822.16;;;11.20;46.98
69624;BME280;56843;52.020;5.670;2023-04-04T07:57:53;102827.75;;;11.23;46.81
69624;BME280;56843;52.020;5.670;2023-04-04T07:59:24;102821.03;;;11.26;46.96
69624;BME280;56843;52.020;5.670;2023-04-04T08:00:55;102817.00;;;11.28;46.83
69624;BME280;56843;52.020;5.670;2023-04-04T08:02:26;102829.81;;;11.31;47.12
69624;BME280;56843;52.020;5.670;2023-04-04T08:03:56;102820.19;;;11.35;46.61
69624;BME280;56843;52.020;5.670;2023-04-04T08:05:27;102821.75;;;11.36;46.61
69624;BME280;56843;52.020;5.670;2023-04-04T08:06:57;102824.97;;;11.38;46.54
69624;BME280;56843;52.020;5.670;2023-04-04T08:08:28;102826.28;;;11.41;46.63
69624;BME280;56843;52.020;5.670;2023-04-04T08:09:59;102817.97;;;11.42;46.18
69624;BME280;56843;52.020;5.670;2023-04-04T08:11:29;102819.56;;;11.43;46.37